createdAt,value
2023-01-01T00:00:39.834Z,13.20
2023-01-01T00:03:06.618Z,13.10
2023-01-01T00:05:33.444Z,13.10
2023-01-01T00:08:04.704Z,13.10
2023-01-01T00:10:32.202Z,13.00
2023-01-01T00:12:59.818Z,13.10
2023-01-01T00:15:27.695Z,13.00
2023-01-01T00:17:54.870Z,13.00
2023-01-01T00:20:22.529Z,13.00
2023-01-01T00:22:56.839Z,12.90
2023-01-01T00:25:24.389Z,12.80
2023-01-01T00:27:51.061Z,12.70
2023-01-01T00:30:17.814Z,12.60
2023-01-01T00:32:55.977Z,12.40
2023-01-01T00:35:26.701Z,12.20
2023-01-01T00:37:55.212Z,12.00
2023-01-01T00:40:21.995Z,11.90
2023-01-01T00:42:48.702Z,11.90
2023-01-01T00:45:20.911Z,11.90
2023-01-01T00:47:48.568Z,11.90
2023-01-01T00:50:15.267Z,11.90
2023-01-01T00:52:41.989Z,11.90
2023-01-01T00:55:09.098Z,11.90
2023-01-01T00:57:35.770Z,11.80
2023-01-01T01:00:02.461Z,11.90
2023-01-01T01:02:29.306Z,11.80
2023-01-01T01:04:56.224Z,11.80
2023-01-01T01:07:23.048Z,11.80
2023-01-01T01:09:49.708Z,11.80
2023-01-01T01:12:17.924Z,11.80
2023-01-01T01:14:47.031Z,11.70
2023-01-01T01:17:13.648Z,11.70
2023-01-01T01:19:40.330Z,11.60
2023-01-01T01:22:06.988Z,11.60
2023-01-01T01:24:33.738Z,11.60
2023-01-01T01:27:00.420Z,11.60
2023-01-01T01:29:27.105Z,11.50
2023-01-01T01:31:53.756Z,11.50
2023-01-01T01:34:27.167Z,11.40
2023-01-01T01:36:54.530Z,11.50
2023-01-01T01:39:21.262Z,11.60
2023-01-01T01:41:47.941Z,11.60
2023-01-01T01:44:45.935Z,11.70
2023-01-01T01:47:26.978Z,11.80
2023-01-01T01:50:02.699Z,11.90
2023-01-01T01:52:30.983Z,12.10
2023-01-01T01:54:58.119Z,12.10
2023-01-01T01:57:24.926Z,12.20
2023-01-01T01:59:54.502Z,12.20
2023-01-01T02:02:38.532Z,12.20
2023-01-01T02:05:06.412Z,12.30
2023-01-01T02:07:34.452Z,12.20
2023-01-01T02:10:02.825Z,12.40
2023-01-01T02:12:29.586Z,12.60
2023-01-01T02:14:56.439Z,12.50
2023-01-01T02:17:39.913Z,12.50
2023-01-01T02:20:15.679Z,12.50
2023-01-01T02:23:20.034Z,12.50
2023-01-01T02:26:16.500Z,12.40
2023-01-01T02:29:10.596Z,12.60
2023-01-01T02:31:44.346Z,12.40
2023-01-01T02:34:14.819Z,12.30
2023-01-01T02:36:48.535Z,12.30
2023-01-01T02:39:16.650Z,12.30
2023-01-01T02:41:50.665Z,12.30
2023-01-01T02:44:19.711Z,12.20
2023-01-01T02:46:46.403Z,12.20
2023-01-01T02:49:13.043Z,12.10
2023-01-01T02:52:01.598Z,12.00
2023-01-01T02:55:03.827Z,12.00
2023-01-01T02:57:30.447Z,12.00
2023-01-01T03:00:18.825Z,11.90
2023-01-01T03:03:13.096Z,12.10
2023-01-01T03:06:23.435Z,12.00
2023-01-01T03:09:11.841Z,12.00
2023-01-01T03:11:54.194Z,12.10
2023-01-01T03:14:58.424Z,12.10
2023-01-01T03:17:37.422Z,12.10
2023-01-01T03:20:10.737Z,12.10
2023-01-01T03:25:10.228Z,12.10
2023-01-01T03:27:50.329Z,12.00
2023-01-01T03:30:22.484Z,11.90
2023-01-01T03:33:00.549Z,11.80
2023-01-01T03:35:53.451Z,11.80
2023-01-01T03:38:29.954Z,11.70
2023-01-01T03:41:15.329Z,11.70
2023-01-01T03:43:49.595Z,11.80
2023-01-01T03:46:20.465Z,11.70
2023-01-01T03:49:02.591Z,11.70
2023-01-01T03:51:44.463Z,11.70
2023-01-01T03:54:46.236Z,11.70
2023-01-01T03:57:37.600Z,11.70
2023-01-01T04:00:27.973Z,11.80
2023-01-01T04:03:09.634Z,11.80
2023-01-01T04:05:40.395Z,11.80
2023-01-01T04:08:08.354Z,11.80
2023-01-01T04:10:38.501Z,11.80
2023-01-01T04:13:06.499Z,11.80
2023-01-01T04:15:33.857Z,11.70
2023-01-01T04:18:00.466Z,11.70
2023-01-01T04:20:27.181Z,11.60
2023-01-01T04:22:57.318Z,11.70
2023-01-01T04:25:23.974Z,11.60
2023-01-01T04:27:50.684Z,11.60
2023-01-01T04:30:17.958Z,11.60
2023-01-01T04:32:44.869Z,11.50
2023-01-01T04:35:13.548Z,11.50
2023-01-01T04:37:45.530Z,11.50
2023-01-01T04:40:13.993Z,11.40
2023-01-01T04:42:41.094Z,11.40
2023-01-01T04:45:08.461Z,11.40
2023-01-01T04:47:35.161Z,11.40
2023-01-01T04:50:01.871Z,11.40
2023-01-01T04:52:28.480Z,11.40
2023-01-01T04:54:55.166Z,11.30
2023-01-01T04:57:21.974Z,11.40
2023-01-01T04:59:48.666Z,11.40
2023-01-01T05:02:15.358Z,11.40
2023-01-01T05:04:42.176Z,11.40
2023-01-01T05:07:08.875Z,11.40
2023-01-01T05:09:35.673Z,11.40
2023-01-01T05:12:02.510Z,11.40
2023-01-01T05:14:29.233Z,11.40
2023-01-01T05:16:56.017Z,11.40
2023-01-01T05:19:22.828Z,11.30
2023-01-01T05:21:49.559Z,11.40
2023-01-01T05:24:16.276Z,11.30
2023-01-01T05:26:44.749Z,11.30
2023-01-01T05:29:16.532Z,11.30
2023-01-01T05:31:44.743Z,11.30
2023-01-01T05:34:11.654Z,11.20
2023-01-01T05:36:39.233Z,11.10
2023-01-01T05:39:10.470Z,11.10
2023-01-01T05:41:37.194Z,11.00
2023-01-01T05:44:06.146Z,11.00
2023-01-01T05:46:33.269Z,11.00
2023-01-01T05:48:59.988Z,11.00
2023-01-01T05:51:28.260Z,11.00
2023-01-01T05:53:55.672Z,11.00
2023-01-01T05:56:22.769Z,11.00
2023-01-01T05:58:49.509Z,11.00
2023-01-01T06:01:20.584Z,10.90
2023-01-01T06:03:48.914Z,10.90
2023-01-01T06:06:18.294Z,10.90
2023-01-01T06:08:52.742Z,10.90
2023-01-01T06:11:20.240Z,10.90
2023-01-01T06:13:47.372Z,10.90
2023-01-01T06:16:14.601Z,10.90
2023-01-01T06:18:41.394Z,10.90
2023-01-01T06:21:20.928Z,10.80
2023-01-01T06:23:47.841Z,10.90
2023-01-01T06:26:23.267Z,10.80
2023-01-01T06:28:50.878Z,10.70
2023-01-01T06:31:20.305Z,10.60
2023-01-01T06:33:47.929Z,10.50
2023-01-01T06:36:16.499Z,10.50
2023-01-01T06:38:45.764Z,10.40
2023-01-01T06:41:27.263Z,10.40
2023-01-01T06:43:56.099Z,10.30
2023-01-01T06:46:28.884Z,10.30
2023-01-01T06:49:00.871Z,10.20
2023-01-01T06:51:33.248Z,10.20
2023-01-01T06:54:02.199Z,10.10
2023-01-01T06:56:29.341Z,10.10
2023-01-01T06:58:56.517Z,10.10
2023-01-01T07:01:29.608Z,10.00
2023-01-01T07:03:59.371Z,10.00
2023-01-01T07:06:27.619Z,9.90
2023-01-01T07:08:54.463Z,10.00
2023-01-01T07:11:21.232Z,9.90
2023-01-01T07:13:48.046Z,9.90
2023-01-01T07:16:15.046Z,10.00
2023-01-01T07:18:42.111Z,9.90
2023-01-01T07:21:34.939Z,10.00
2023-01-01T07:24:04.466Z,10.00
2023-01-01T07:26:32.714Z,10.00
2023-01-01T07:29:06.923Z,10.00
2023-01-01T07:31:40.177Z,10.00
2023-01-01T07:34:09.787Z,10.10
2023-01-01T07:36:38.190Z,10.10
2023-01-01T07:39:04.865Z,10.10
2023-01-01T07:41:31.560Z,10.00
2023-01-01T07:43:58.308Z,10.10
2023-01-01T07:46:25.016Z,10.10
2023-01-01T07:48:51.709Z,10.10
2023-01-01T07:51:18.439Z,10.10
2023-01-01T07:53:45.087Z,10.10
2023-01-01T07:56:11.755Z,10.10
2023-01-01T07:58:41.907Z,10.00
2023-01-01T08:01:14.427Z,10.00
2023-01-01T08:03:41.466Z,10.00
2023-01-01T08:06:12.921Z,9.90
2023-01-01T08:08:40.372Z,9.90
2023-01-01T08:11:07.265Z,9.80
2023-01-01T08:13:33.884Z,9.80
2023-01-01T08:16:00.642Z,9.70
2023-01-01T08:18:27.504Z,9.70
2023-01-01T08:20:54.374Z,9.70
2023-01-01T08:23:21.226Z,9.80
2023-01-01T08:25:47.875Z,9.80
2023-01-01T08:28:14.522Z,9.80
2023-01-01T08:30:41.389Z,9.90
2023-01-01T08:33:08.083Z,10.00
2023-01-01T08:35:37.317Z,10.10
2023-01-01T08:38:03.949Z,10.20
2023-01-01T08:40:30.712Z,10.30
2023-01-01T08:42:57.389Z,10.40
2023-01-01T08:45:23.990Z,10.50
2023-01-01T08:47:50.645Z,10.50
2023-01-01T08:50:17.514Z,10.60
2023-01-01T08:52:44.249Z,10.80
2023-01-01T08:55:10.877Z,10.80
2023-01-01T08:57:37.524Z,10.90
2023-01-01T09:00:05.299Z,11.00
2023-01-01T09:02:32.181Z,11.10
2023-01-01T09:04:58.919Z,11.10
2023-01-01T09:07:25.573Z,11.10
2023-01-01T09:09:52.229Z,11.10
2023-01-01T09:12:18.898Z,11.10
2023-01-01T09:14:48.726Z,11.20
2023-01-01T09:17:15.475Z,11.20
2023-01-01T09:19:42.105Z,11.30
2023-01-01T09:22:12.924Z,11.30
2023-01-01T09:24:39.664Z,11.40
2023-01-01T09:27:06.367Z,11.50
2023-01-01T09:29:33.042Z,11.60
2023-01-01T09:32:00.004Z,11.70
2023-01-01T09:34:26.697Z,11.90
2023-01-01T09:36:53.373Z,12.00
2023-01-01T09:39:20.013Z,12.10
2023-01-01T09:42:24.463Z,12.20
2023-01-01T09:45:08.398Z,12.30
2023-01-01T09:47:39.597Z,12.50
2023-01-01T09:50:36.872Z,12.60
2023-01-01T09:53:14.141Z,12.70
2023-01-01T09:56:00.410Z,12.70
2023-01-01T09:58:32.119Z,12.80
2023-01-01T10:01:06.107Z,12.80
2023-01-01T10:03:47.729Z,12.80
2023-01-01T10:06:20.234Z,12.80
2023-01-01T10:09:17.775Z,12.80
2023-01-01T10:12:05.095Z,13.00
2023-01-01T10:14:36.256Z,13.10
2023-01-01T10:17:26.222Z,13.20
2023-01-01T10:20:01.026Z,13.20
2023-01-01T10:22:36.118Z,13.40
2023-01-01T10:25:09.236Z,13.50
2023-01-01T10:27:41.195Z,13.60
2023-01-01T10:30:24.841Z,13.70
2023-01-01T10:32:53.597Z,13.80
2023-01-01T10:35:31.194Z,13.90
2023-01-01T10:38:02.323Z,14.00
2023-01-01T10:40:30.033Z,14.20
2023-01-01T10:42:58.828Z,14.30
2023-01-01T10:45:36.323Z,14.50
2023-01-01T10:48:20.473Z,14.60
2023-01-01T10:50:50.411Z,14.70
2023-01-01T10:53:37.318Z,14.80
2023-01-01T10:56:14.112Z,14.90
2023-01-01T10:58:56.481Z,15.00
2023-01-01T11:01:28.512Z,15.10
2023-01-01T11:03:58.506Z,15.20
2023-01-01T11:06:36.241Z,15.30
2023-01-01T11:09:19.313Z,15.30
2023-01-01T11:11:48.101Z,15.50
2023-01-01T11:14:26.514Z,15.50
2023-01-01T11:16:54.641Z,15.40
2023-01-01T11:19:27.054Z,15.50
2023-01-01T11:21:53.677Z,15.60
2023-01-01T11:24:28.856Z,15.60
2023-01-01T11:27:22.820Z,15.60
2023-01-01T11:29:51.466Z,15.70
2023-01-01T11:32:38.794Z,15.70
2023-01-01T11:35:14.571Z,15.70
2023-01-01T11:37:42.599Z,15.80
2023-01-01T11:40:18.383Z,15.80
2023-01-01T11:42:48.451Z,15.90
2023-01-01T11:45:21.264Z,15.90
2023-01-01T11:48:05.988Z,15.90
2023-01-01T11:50:34.664Z,15.90
2023-01-01T11:53:24.575Z,15.90
2023-01-01T11:56:17.260Z,15.90
2023-01-01T11:59:03.643Z,15.90
2023-01-01T12:01:53.889Z,15.90
2023-01-01T12:04:43.216Z,16.00
2023-01-01T12:07:15.543Z,16.00
2023-01-01T12:10:02.966Z,16.10
2023-01-01T12:12:58.007Z,16.10
2023-01-01T12:15:38.361Z,16.20
2023-01-01T12:18:25.354Z,16.30
2023-01-01T12:20:58.713Z,16.40
2023-01-01T12:23:25.676Z,16.40
2023-01-01T12:26:21.156Z,16.50
2023-01-01T12:29:25.523Z,16.60
2023-01-01T12:32:12.657Z,16.50
2023-01-01T12:35:21.335Z,16.50
2023-01-01T12:38:16.912Z,16.50
2023-01-01T12:40:48.060Z,16.50
2023-01-01T12:43:27.124Z,16.50
2023-01-01T12:46:31.534Z,16.50
2023-01-01T12:49:11.096Z,16.50
2023-01-01T12:52:05.760Z,16.50
2023-01-01T12:54:47.438Z,16.50
2023-01-01T12:57:36.281Z,16.50
2023-01-01T13:00:12.815Z,16.60
2023-01-01T13:03:01.888Z,16.70
2023-01-01T13:05:39.951Z,16.70
2023-01-01T13:08:06.901Z,16.70
2023-01-01T13:10:34.890Z,16.70
2023-01-01T13:13:02.565Z,16.70
2023-01-01T13:15:37.941Z,16.70
2023-01-01T13:18:29.066Z,16.70
2023-01-01T13:21:00.957Z,16.60
2023-01-01T13:23:34.822Z,16.50
2023-01-01T13:26:22.851Z,16.40
2023-01-01T13:29:12.594Z,16.50
2023-01-01T13:31:39.594Z,16.50
2023-01-01T13:34:31.572Z,16.40
2023-01-01T13:37:24.183Z,16.20
2023-01-01T13:39:53.973Z,16.20
2023-01-01T13:42:59.220Z,16.10
2023-01-01T13:46:10.647Z,16.10
2023-01-01T13:48:31.631Z,16.10
2023-01-01T13:51:47.141Z,16.10
2023-01-01T13:54:26.286Z,16.10
2023-01-01T13:56:53.382Z,16.00
2023-01-01T13:59:38.583Z,15.90
2023-01-01T14:02:21.781Z,15.90
2023-01-01T14:04:54.885Z,15.80
2023-01-01T14:07:52.358Z,15.80
2023-01-01T14:10:38.298Z,15.70
2023-01-01T14:13:10.657Z,15.60
2023-01-01T14:15:53.100Z,15.50
2023-01-01T14:18:23.405Z,15.50
2023-01-01T14:20:52.574Z,15.40
2023-01-01T14:23:44.646Z,15.30
2023-01-01T14:26:15.497Z,15.30
2023-01-01T14:28:43.288Z,15.20
2023-01-01T14:31:12.053Z,15.20
2023-01-01T14:33:39.691Z,15.20
2023-01-01T14:36:17.508Z,15.00
2023-01-01T14:38:46.680Z,15.00
2023-01-01T14:41:28.604Z,14.90
2023-01-01T14:44:09.350Z,14.90
2023-01-01T14:46:41.112Z,14.90
2023-01-01T14:49:10.916Z,14.90
2023-01-01T14:51:44.635Z,14.90
2023-01-01T14:54:19.936Z,14.90
2023-01-01T14:56:49.375Z,14.90
2023-01-01T14:59:31.726Z,14.80
2023-01-01T15:02:04.099Z,14.70
2023-01-01T15:04:31.055Z,14.60
2023-01-01T15:06:59.813Z,14.40
2023-01-01T15:09:31.568Z,14.20
2023-01-01T15:11:59.978Z,14.00
2023-01-01T15:14:37.316Z,13.80
2023-01-01T15:17:09.128Z,13.70
2023-01-01T15:19:37.613Z,13.50
2023-01-01T15:22:26.440Z,13.30
2023-01-01T15:24:54.215Z,13.20
2023-01-01T15:27:35.648Z,13.00
2023-01-01T15:30:11.642Z,12.90
2023-01-01T15:32:40.650Z,12.70
2023-01-01T15:35:23.743Z,12.60
2023-01-01T15:37:57.800Z,12.50
2023-01-01T15:40:24.471Z,12.30
2023-01-01T15:42:57.252Z,12.30
2023-01-01T15:45:28.534Z,12.10
2023-01-01T15:47:56.384Z,12.10
2023-01-01T15:50:23.125Z,12.00
2023-01-01T15:52:56.037Z,11.90
2023-01-01T15:55:24.379Z,11.80
2023-01-01T15:57:52.039Z,11.80
2023-01-01T16:00:28.402Z,11.70
2023-01-01T16:02:59.631Z,11.60
2023-01-01T16:05:27.626Z,11.50
2023-01-01T16:08:01.680Z,11.40
2023-01-01T16:10:28.412Z,11.30
2023-01-01T16:12:55.174Z,11.30
2023-01-01T16:15:21.857Z,11.20
2023-01-01T16:17:48.509Z,11.20
2023-01-01T16:20:20.155Z,11.10
2023-01-01T16:22:46.947Z,11.10
2023-01-01T16:25:19.265Z,11.00
2023-01-01T16:27:45.883Z,11.00
2023-01-01T16:30:13.941Z,11.00
2023-01-01T16:32:41.505Z,11.00
2023-01-01T16:35:12.947Z,10.90
2023-01-01T16:37:39.598Z,10.90
2023-01-01T16:40:09.210Z,10.90
2023-01-01T16:42:35.981Z,10.90
2023-01-01T16:45:02.715Z,10.90
2023-01-01T16:47:29.389Z,10.90
2023-01-01T16:49:56.079Z,10.90
2023-01-01T16:52:22.701Z,10.90
2023-01-01T16:54:49.383Z,11.00
2023-01-01T16:57:16.012Z,10.90
2023-01-01T16:59:42.724Z,11.00
2023-01-01T17:02:11.188Z,11.00
2023-01-01T17:04:38.090Z,11.00
2023-01-01T17:07:04.811Z,11.00
2023-01-01T17:09:31.437Z,11.00
2023-01-01T17:11:58.085Z,11.00
2023-01-01T17:14:24.924Z,11.00
2023-01-01T17:16:56.359Z,11.00
2023-01-01T17:19:23.086Z,11.00
2023-01-01T17:21:49.884Z,10.90
2023-01-01T17:24:18.223Z,11.00
2023-01-01T17:26:45.458Z,10.90
2023-01-01T17:29:12.505Z,10.90
2023-01-01T17:31:39.211Z,10.90
2023-01-01T17:34:05.972Z,10.80
2023-01-01T17:36:32.777Z,10.80
2023-01-01T17:38:59.415Z,10.80
2023-01-01T17:41:26.075Z,10.70
2023-01-01T17:43:52.845Z,10.70
2023-01-01T17:46:31.000Z,10.70
2023-01-01T17:48:57.759Z,10.70
2023-01-01T17:51:25.254Z,10.70
2023-01-01T17:53:52.798Z,10.70
2023-01-01T17:56:20.491Z,10.70
2023-01-01T17:58:48.835Z,10.70
2023-01-01T18:01:21.844Z,10.60
2023-01-01T18:03:50.412Z,10.60
2023-01-01T18:06:17.077Z,10.60
2023-01-01T18:08:43.775Z,10.60
2023-01-01T18:11:10.448Z,10.60
2023-01-01T18:13:37.503Z,10.60
2023-01-01T18:16:06.958Z,10.60
2023-01-01T18:18:40.345Z,10.50
2023-01-01T18:21:14.386Z,10.60
2023-01-01T18:23:41.819Z,10.60
2023-01-01T18:26:10.717Z,10.60
2023-01-01T18:28:38.004Z,10.70
2023-01-01T18:31:13.361Z,10.70
2023-01-01T18:33:40.529Z,10.70
2023-01-01T18:36:12.795Z,10.70
2023-01-01T18:38:39.971Z,10.70
2023-01-01T18:41:34.183Z,10.70
2023-01-01T18:44:01.637Z,10.70
2023-01-01T18:46:33.429Z,10.70
2023-01-01T18:49:01.861Z,10.70
2023-01-01T18:51:28.480Z,10.70
2023-01-01T18:53:57.924Z,10.70
2023-01-01T18:56:25.231Z,10.70
2023-01-01T18:58:54.812Z,10.60
2023-01-01T19:01:22.943Z,10.60
2023-01-01T19:03:52.180Z,10.70
2023-01-01T19:06:27.926Z,10.70
2023-01-01T19:09:04.892Z,10.60
2023-01-01T19:11:31.881Z,10.60
2023-01-01T19:14:05.610Z,10.60
2023-01-01T19:16:33.249Z,10.60
2023-01-01T19:19:15.086Z,10.60
2023-01-01T19:21:46.475Z,10.60
2023-01-01T19:24:23.893Z,10.60
2023-01-01T19:26:59.854Z,10.50
2023-01-01T19:29:29.731Z,10.50
2023-01-01T19:31:57.959Z,10.50
2023-01-01T19:34:25.443Z,10.60
2023-01-01T19:36:52.573Z,10.50
2023-01-01T19:39:19.780Z,10.50
2023-01-01T19:41:47.094Z,10.60
2023-01-01T19:44:13.807Z,10.50
2023-01-01T19:46:40.565Z,10.50
2023-01-01T19:49:07.246Z,10.50
2023-01-01T19:51:33.942Z,10.50
2023-01-01T19:54:00.769Z,10.50
2023-01-01T19:56:27.493Z,10.50
2023-01-01T19:58:54.187Z,10.50
2023-01-01T20:01:20.981Z,10.50
2023-01-01T20:03:57.062Z,10.50
2023-01-01T20:06:25.172Z,10.60
2023-01-01T20:08:52.111Z,10.60
2023-01-01T20:11:19.942Z,10.70
2023-01-01T20:13:46.915Z,10.70
2023-01-01T20:16:13.691Z,10.80
2023-01-01T20:18:40.382Z,10.80
2023-01-01T20:21:26.956Z,10.80
2023-01-01T20:23:55.240Z,10.80
2023-01-01T20:26:23.827Z,10.80
2023-01-01T20:29:09.177Z,10.70
2023-01-01T20:31:36.430Z,10.70
2023-01-01T20:34:03.392Z,10.70
2023-01-01T20:36:48.690Z,10.70
2023-01-01T20:39:15.378Z,10.70
2023-01-01T20:41:42.111Z,10.80
2023-01-01T20:44:08.771Z,10.90
2023-01-01T20:46:38.096Z,10.90
2023-01-01T20:49:05.000Z,11.00
2023-01-01T20:51:31.666Z,11.10
2023-01-01T20:53:58.399Z,11.30
2023-01-01T20:56:25.054Z,11.30
2023-01-01T20:58:59.512Z,11.30
2023-01-01T21:01:31.896Z,11.30
2023-01-01T21:03:58.703Z,11.50
2023-01-01T21:06:25.460Z,11.60
2023-01-01T21:08:52.841Z,11.60
2023-01-01T21:11:19.487Z,11.60
2023-01-01T21:13:46.639Z,11.60
2023-01-01T21:16:36.287Z,11.60
2023-01-01T21:19:06.857Z,11.60
2023-01-01T21:21:44.337Z,11.60
2023-01-01T21:24:20.992Z,11.50
2023-01-01T21:26:49.186Z,11.50
2023-01-01T21:29:21.332Z,11.40
2023-01-01T21:31:52.772Z,11.40
2023-01-01T21:34:32.348Z,11.30
2023-01-01T21:37:12.598Z,11.30
2023-01-01T21:39:39.248Z,11.20
2023-01-01T21:42:19.044Z,11.20
2023-01-01T21:44:47.671Z,11.10
2023-01-01T21:47:23.512Z,11.10
2023-01-01T21:49:52.752Z,11.10
2023-01-01T21:52:22.243Z,11.10
2023-01-01T21:54:49.118Z,11.10
2023-01-01T21:57:24.041Z,11.10
2023-01-01T21:59:51.829Z,11.10
2023-01-01T22:02:31.921Z,11.10
2023-01-01T22:05:02.193Z,11.10
2023-01-01T22:10:25.363Z,11.10
2023-01-01T22:12:58.598Z,11.10
2023-01-01T22:15:25.267Z,11.10
2023-01-01T22:18:14.664Z,11.00
2023-01-01T22:20:44.091Z,11.10
2023-01-01T22:23:31.016Z,11.00
2023-01-01T22:25:57.737Z,11.00
2023-01-01T22:28:27.191Z,11.00
2023-01-01T22:30:59.072Z,11.00
2023-01-01T22:33:42.763Z,11.00
2023-01-01T22:36:26.371Z,10.90
2023-01-01T22:51:21.627Z,10.50
2023-01-01T22:53:48.856Z,10.40
2023-01-01T22:56:15.577Z,10.30
2023-01-01T22:58:42.252Z,10.30
2023-01-01T23:01:09.082Z,10.20
2023-01-01T23:03:35.858Z,10.30
2023-01-01T23:06:03.320Z,10.30
2023-01-01T23:08:30.437Z,10.40
2023-01-01T23:10:58.469Z,10.40
2023-01-01T23:13:43.985Z,10.50
2023-01-01T23:16:11.107Z,10.50
2023-01-01T23:18:38.106Z,10.50
2023-01-01T23:21:10.935Z,10.60
2023-01-01T23:23:38.885Z,10.60
2023-01-01T23:26:06.938Z,10.70
2023-01-01T23:28:34.056Z,10.70
2023-01-01T23:31:03.387Z,10.70
2023-01-01T23:33:31.089Z,10.80
2023-01-01T23:35:58.030Z,10.80
2023-01-01T23:38:26.840Z,10.90
2023-01-01T23:40:53.502Z,10.90
2023-01-01T23:43:20.148Z,10.90
2023-01-01T23:45:47.567Z,10.90
2023-01-01T23:48:15.557Z,10.90
2023-01-01T23:50:42.493Z,11.00
2023-01-01T23:53:09.271Z,11.00
2023-01-01T23:55:35.944Z,11.00
2023-01-01T23:58:02.608Z,11.10
